sensor_id;sensor_type;location;lat;lon;timestamp;P1;durP1;ratioP1;P2;durP2;ratioP2
69185;SDS011;56298;49.246;9.410;2022-11-20T00:00:45;23.80;;;12.53;;
69185;SDS011;56298;49.246;9.410;2022-11-20T00:03:10;24.07;;;12.40;;
69185;SDS011;56298;49.246;9.410;2022-11-20T00:05:35;25.73;;;12.83;;
69185;SDS011;56298;49.246;9.410;2022-11-20T00:08:01;23.73;;;12.33;;
69185;SDS011;56298;49.246;9.410;2022-11-20T00:10:26;25.67;;;13.93;;
69185;SDS011;56298;49.246;9.410;2022-11-20T00:12:51;27.73;;;13.87;;
69185;SDS011;56298;49.246;9.410;2022-11-20T00:15:17;27.33;;;13.50;;
69185;SDS011;56298;49.246;9.410;2022-11-20T00:17:44;27.00;;;12.93;;
69185;SDS011;56298;49.246;9.410;2022-11-20T00:20:09;24.27;;;12.67;;
69185;SDS011;56298;49.246;9.410;2022-11-20T00:22:35;24.48;;;13.38;;
69185;SDS011;56298;49.246;9.410;2022-11-20T00:25:00;25.53;;;12.60;;
69185;SDS011;56298;49.246;9.410;2022-11-20T00:27:25;25.93;;;12.70;;
69185;SDS011;56298;49.246;9.410;2022-11-20T00:29:51;25.57;;;13.00;;
69185;SDS011;56298;49.246;9.410;2022-11-20T00:32:16;25.13;;;13.33;;
69185;SDS011;56298;49.246;9.410;2022-11-20T00:34:41;22.77;;;12.13;;
69185;SDS011;56298;49.246;9.410;2022-11-20T00:37:06;25.63;;;12.70;;
69185;SDS011;56298;49.246;9.410;2022-11-20T00:39:31;24.67;;;12.50;;
69185;SDS011;56298;49.246;9.410;2022-11-20T00:41:57;22.70;;;12.87;;
69185;SDS011;56298;49.246;9.410;2022-11-20T00:44:22;25.43;;;13.40;;
69185;SDS011;56298;49.246;9.410;2022-11-20T00:46:47;23.70;;;12.63;;
69185;SDS011;56298;49.246;9.410;2022-11-20T00:49:12;26.27;;;13.30;;
69185;SDS011;56298;49.246;9.410;2022-11-20T00:51:38;23.67;;;12.80;;
69185;SDS011;56298;49.246;9.410;2022-11-20T00:54:03;24.90;;;12.80;;
69185;SDS011;56298;49.246;9.410;2022-11-20T00:56:28;23.33;;;12.50;;
69185;SDS011;56298;49.246;9.410;2022-11-20T00:58:54;25.97;;;13.13;;
69185;SDS011;56298;49.246;9.410;2022-11-20T01:01:23;24.93;;;13.17;;
69185;SDS011;56298;49.246;9.410;2022-11-20T01:03:50;22.85;;;12.55;;
69185;SDS011;56298;49.246;9.410;2022-11-20T01:08:49;24.35;;;12.50;;
69185;SDS011;56298;49.246;9.410;2022-11-20T01:11:16;24.52;;;12.85;;
69185;SDS011;56298;49.246;9.410;2022-11-20T01:13:44;24.92;;;12.70;;
69185;SDS011;56298;49.246;9.410;2022-11-20T01:18:43;22.95;;;12.57;;
69185;SDS011;56298;49.246;9.410;2022-11-20T01:21:11;24.88;;;13.10;;
69185;SDS011;56298;49.246;9.410;2022-11-20T01:23:39;24.23;;;13.10;;
69185;SDS011;56298;49.246;9.410;2022-11-20T01:26:06;24.75;;;13.18;;
69185;SDS011;56298;49.246;9.410;2022-11-20T01:28:34;25.63;;;12.82;;
69185;SDS011;56298;49.246;9.410;2022-11-20T01:30:59;24.87;;;12.73;;
69185;SDS011;56298;49.246;9.410;2022-11-20T01:33:25;25.27;;;12.85;;
69185;SDS011;56298;49.246;9.410;2022-11-20T01:35:51;25.33;;;13.13;;
69185;SDS011;56298;49.246;9.410;2022-11-20T01:38:17;25.65;;;13.10;;
69185;SDS011;56298;49.246;9.410;2022-11-20T01:40:44;24.58;;;12.98;;
69185;SDS011;56298;49.246;9.410;2022-11-20T01:43:14;22.27;;;12.32;;
69185;SDS011;56298;49.246;9.410;2022-11-20T01:46:05;22.95;;;12.07;;
69185;SDS011;56298;49.246;9.410;2022-11-20T01:48:49;25.27;;;13.23;;
69185;SDS011;56298;49.246;9.410;2022-11-20T01:53:49;21.73;;;11.60;;
69185;SDS011;56298;49.246;9.410;2022-11-20T01:56:16;22.40;;;12.18;;
69185;SDS011;56298;49.246;9.410;2022-11-20T01:58:44;23.45;;;11.88;;
69185;SDS011;56298;49.246;9.410;2022-11-20T02:01:13;23.00;;;12.35;;
69185;SDS011;56298;49.246;9.410;2022-11-20T02:03:39;23.40;;;12.80;;
69185;SDS011;56298;49.246;9.410;2022-11-20T02:08:52;22.13;;;12.43;;
69185;SDS011;56298;49.246;9.410;2022-11-20T02:11:18;23.25;;;12.07;;
69185;SDS011;56298;49.246;9.410;2022-11-20T02:13:43;24.20;;;12.33;;
69185;SDS011;56298;49.246;9.410;2022-11-20T02:16:14;23.02;;;12.50;;
69185;SDS011;56298;49.246;9.410;2022-11-20T02:18:40;23.73;;;12.43;;
69185;SDS011;56298;49.246;9.410;2022-11-20T02:21:08;23.30;;;12.07;;
69185;SDS011;56298;49.246;9.410;2022-11-20T02:23:38;22.75;;;12.38;;
69185;SDS011;56298;49.246;9.410;2022-11-20T02:26:09;23.80;;;11.77;;
69185;SDS011;56298;49.246;9.410;2022-11-20T02:28:40;22.98;;;11.40;;
69185;SDS011;56298;49.246;9.410;2022-11-20T02:31:06;23.30;;;12.15;;
69185;SDS011;56298;49.246;9.410;2022-11-20T02:33:32;23.23;;;11.48;;
69185;SDS011;56298;49.246;9.410;2022-11-20T02:35:57;22.50;;;12.37;;
69185;SDS011;56298;49.246;9.410;2022-11-20T02:38:23;22.17;;;12.00;;
69185;SDS011;56298;49.246;9.410;2022-11-20T02:40:48;25.30;;;13.10;;
69185;SDS011;56298;49.246;9.410;2022-11-20T02:43:15;22.33;;;12.00;;
69185;SDS011;56298;49.246;9.410;2022-11-20T02:45:40;21.85;;;12.13;;
69185;SDS011;56298;49.246;9.410;2022-11-20T02:48:06;23.40;;;12.47;;
69185;SDS011;56298;49.246;9.410;2022-11-20T02:50:32;22.07;;;11.20;;
69185;SDS011;56298;49.246;9.410;2022-11-20T02:52:58;21.87;;;11.67;;
69185;SDS011;56298;49.246;9.410;2022-11-20T02:55:23;22.77;;;12.40;;
69185;SDS011;56298;49.246;9.410;2022-11-20T02:57:48;21.50;;;11.97;;
69185;SDS011;56298;49.246;9.410;2022-11-20T03:00:13;22.37;;;12.20;;
69185;SDS011;56298;49.246;9.410;2022-11-20T03:02:39;23.30;;;12.20;;
69185;SDS011;56298;49.246;9.410;2022-11-20T03:05:04;23.27;;;11.98;;
69185;SDS011;56298;49.246;9.410;2022-11-20T03:07:30;22.40;;;12.00;;
69185;SDS011;56298;49.246;9.410;2022-11-20T03:09:55;21.50;;;12.03;;
69185;SDS011;56298;49.246;9.410;2022-11-20T03:12:20;23.60;;;12.57;;
69185;SDS011;56298;49.246;9.410;2022-11-20T03:14:45;22.57;;;11.40;;
69185;SDS011;56298;49.246;9.410;2022-11-20T03:17:11;22.80;;;12.00;;
69185;SDS011;56298;49.246;9.410;2022-11-20T03:19:36;23.02;;;12.38;;
69185;SDS011;56298;49.246;9.410;2022-11-20T03:22:01;23.17;;;12.10;;
69185;SDS011;56298;49.246;9.410;2022-11-20T03:24:26;25.10;;;12.83;;
69185;SDS011;56298;49.246;9.410;2022-11-20T03:26:52;24.33;;;12.17;;
69185;SDS011;56298;49.246;9.410;2022-11-20T03:29:17;23.27;;;12.70;;
69185;SDS011;56298;49.246;9.410;2022-11-20T03:31:42;23.53;;;12.03;;
69185;SDS011;56298;49.246;9.410;2022-11-20T03:34:08;24.27;;;13.10;;
69185;SDS011;56298;49.246;9.410;2022-11-20T03:36:37;23.90;;;12.73;;
69185;SDS011;56298;49.246;9.410;2022-11-20T03:39:04;22.00;;;12.25;;
69185;SDS011;56298;49.246;9.410;2022-11-20T03:41:30;23.30;;;12.33;;
69185;SDS011;56298;49.246;9.410;2022-11-20T03:44:00;23.25;;;12.00;;
69185;SDS011;56298;49.246;9.410;2022-11-20T03:46:27;21.55;;;11.77;;
69185;SDS011;56298;49.246;9.410;2022-11-20T03:48:52;22.02;;;11.55;;
69185;SDS011;56298;49.246;9.410;2022-11-20T03:51:26;25.33;;;12.80;;
69185;SDS011;56298;49.246;9.410;2022-11-20T03:53:53;22.02;;;11.43;;
69185;SDS011;56298;49.246;9.410;2022-11-20T03:56:25;23.57;;;12.13;;
69185;SDS011;56298;49.246;9.410;2022-11-20T03:58:52;22.13;;;11.80;;
69185;SDS011;56298;49.246;9.410;2022-11-20T04:01:19;21.20;;;11.63;;
69185;SDS011;56298;49.246;9.410;2022-11-20T04:03:47;23.13;;;12.48;;
69185;SDS011;56298;49.246;9.410;2022-11-20T04:06:14;21.25;;;11.35;;
69185;SDS011;56298;49.246;9.410;2022-11-20T04:08:41;22.65;;;11.80;;
69185;SDS011;56298;49.246;9.410;2022-11-20T04:13:34;23.73;;;11.80;;
69185;SDS011;56298;49.246;9.410;2022-11-20T04:16:00;22.67;;;12.07;;
69185;SDS011;56298;49.246;9.410;2022-11-20T04:18:25;24.07;;;12.17;;
69185;SDS011;56298;49.246;9.410;2022-11-20T04:20:50;23.93;;;12.10;;
69185;SDS011;56298;49.246;9.410;2022-11-20T04:23:16;23.65;;;11.98;;
69185;SDS011;56298;49.246;9.410;2022-11-20T04:25:41;25.43;;;13.27;;
69185;SDS011;56298;49.246;9.410;2022-11-20T04:28:06;24.73;;;13.03;;
69185;SDS011;56298;49.246;9.410;2022-11-20T04:30:31;23.47;;;12.17;;
69185;SDS011;56298;49.246;9.410;2022-11-20T04:32:57;26.50;;;12.90;;
69185;SDS011;56298;49.246;9.410;2022-11-20T04:35:22;25.42;;;13.10;;
69185;SDS011;56298;49.246;9.410;2022-11-20T04:37:47;24.53;;;12.87;;
69185;SDS011;56298;49.246;9.410;2022-11-20T04:40:12;23.70;;;12.60;;
69185;SDS011;56298;49.246;9.410;2022-11-20T04:42:38;24.00;;;12.83;;
69185;SDS011;56298;49.246;9.410;2022-11-20T04:45:03;25.30;;;12.53;;
69185;SDS011;56298;49.246;9.410;2022-11-20T04:47:29;25.10;;;12.50;;
69185;SDS011;56298;49.246;9.410;2022-11-20T04:49:54;28.13;;;12.53;;
69185;SDS011;56298;49.246;9.410;2022-11-20T04:52:19;25.17;;;13.00;;
69185;SDS011;56298;49.246;9.410;2022-11-20T04:54:45;24.87;;;12.70;;
69185;SDS011;56298;49.246;9.410;2022-11-20T04:57:10;25.13;;;12.93;;
69185;SDS011;56298;49.246;9.410;2022-11-20T04:59:37;25.77;;;12.35;;
69185;SDS011;56298;49.246;9.410;2022-11-20T05:02:03;25.47;;;12.97;;
69185;SDS011;56298;49.246;9.410;2022-11-20T05:04:28;29.47;;;13.87;;
69185;SDS011;56298;49.246;9.410;2022-11-20T05:06:53;26.92;;;13.18;;
69185;SDS011;56298;49.246;9.410;2022-11-20T05:09:18;26.53;;;13.33;;
69185;SDS011;56298;49.246;9.410;2022-11-20T05:11:44;26.00;;;12.47;;
69185;SDS011;56298;49.246;9.410;2022-11-20T05:14:09;27.07;;;12.87;;
69185;SDS011;56298;49.246;9.410;2022-11-20T05:16:34;27.03;;;12.47;;
69185;SDS011;56298;49.246;9.410;2022-11-20T05:19:01;31.90;;;12.70;;
69185;SDS011;56298;49.246;9.410;2022-11-20T05:21:26;22.13;;;11.37;;
69185;SDS011;56298;49.246;9.410;2022-11-20T05:23:52;28.73;;;12.18;;
69185;SDS011;56298;49.246;9.410;2022-11-20T05:26:18;28.57;;;11.47;;
69185;SDS011;56298;49.246;9.410;2022-11-20T05:28:47;22.75;;;11.43;;
69185;SDS011;56298;49.246;9.410;2022-11-20T05:31:14;25.77;;;12.55;;
69185;SDS011;56298;49.246;9.410;2022-11-20T05:33:42;25.55;;;11.75;;
69185;SDS011;56298;49.246;9.410;2022-11-20T05:36:08;25.67;;;12.50;;
69185;SDS011;56298;49.246;9.410;2022-11-20T05:38:34;23.63;;;11.63;;
69185;SDS011;56298;49.246;9.410;2022-11-20T05:41:10;22.40;;;11.17;;
69185;SDS011;56298;49.246;9.410;2022-11-20T05:43:40;44.83;;;12.07;;
69185;SDS011;56298;49.246;9.410;2022-11-20T05:46:07;35.65;;;12.20;;
69185;SDS011;56298;49.246;9.410;2022-11-20T05:48:34;23.98;;;11.95;;
69185;SDS011;56298;49.246;9.410;2022-11-20T05:51:01;24.92;;;11.90;;
69185;SDS011;56298;49.246;9.410;2022-11-20T05:53:28;25.13;;;11.93;;
69185;SDS011;56298;49.246;9.410;2022-11-20T05:56:01;25.53;;;13.13;;
69185;SDS011;56298;49.246;9.410;2022-11-20T05:58:31;27.10;;;13.63;;
69185;SDS011;56298;49.246;9.410;2022-11-20T06:01:06;25.55;;;12.48;;
69185;SDS011;56298;49.246;9.410;2022-11-20T06:03:32;26.60;;;13.27;;
69185;SDS011;56298;49.246;9.410;2022-11-20T06:06:01;24.15;;;12.90;;
69185;SDS011;56298;49.246;9.410;2022-11-20T06:08:27;22.17;;;11.15;;
69185;SDS011;56298;49.246;9.410;2022-11-20T06:10:53;26.57;;;13.33;;
69185;SDS011;56298;49.246;9.410;2022-11-20T06:13:18;25.47;;;13.07;;
69185;SDS011;56298;49.246;9.410;2022-11-20T06:15:53;25.00;;;13.03;;
69185;SDS011;56298;49.246;9.410;2022-11-20T06:18:18;25.30;;;12.43;;
69185;SDS011;56298;49.246;9.410;2022-11-20T06:20:44;23.17;;;12.60;;
69185;SDS011;56298;49.246;9.410;2022-11-20T06:23:10;25.70;;;12.88;;
69185;SDS011;56298;49.246;9.410;2022-11-20T06:25:42;24.08;;;11.90;;
69185;SDS011;56298;49.246;9.410;2022-11-20T06:28:08;25.77;;;11.90;;
69185;SDS011;56298;49.246;9.410;2022-11-20T06:30:34;28.75;;;12.18;;
69185;SDS011;56298;49.246;9.410;2022-11-20T06:32:59;27.10;;;13.07;;
69185;SDS011;56298;49.246;9.410;2022-11-20T06:35:25;25.53;;;12.43;;
69185;SDS011;56298;49.246;9.410;2022-11-20T06:37:50;24.60;;;13.07;;
69185;SDS011;56298;49.246;9.410;2022-11-20T06:40:15;22.67;;;12.27;;
69185;SDS011;56298;49.246;9.410;2022-11-20T06:42:41;20.33;;;11.37;;
69185;SDS011;56298;49.246;9.410;2022-11-20T06:45:06;22.92;;;11.35;;
69185;SDS011;56298;49.246;9.410;2022-11-20T06:47:33;21.52;;;11.50;;
69185;SDS011;56298;49.246;9.410;2022-11-20T06:49:58;21.63;;;11.40;;
69185;SDS011;56298;49.246;9.410;2022-11-20T06:52:23;21.70;;;11.83;;
69185;SDS011;56298;49.246;9.410;2022-11-20T06:54:49;22.60;;;11.83;;
69185;SDS011;56298;49.246;9.410;2022-11-20T06:57:14;20.93;;;11.63;;
69185;SDS011;56298;49.246;9.410;2022-11-20T06:59:39;19.20;;;10.83;;
69185;SDS011;56298;49.246;9.410;2022-11-20T07:02:04;22.87;;;11.37;;
69185;SDS011;56298;49.246;9.410;2022-11-20T07:04:30;17.87;;;10.20;;
69185;SDS011;56298;49.246;9.410;2022-11-20T07:06:55;23.93;;;12.33;;
69185;SDS011;56298;49.246;9.410;2022-11-20T07:09:20;22.57;;;12.27;;
69185;SDS011;56298;49.246;9.410;2022-11-20T07:11:45;19.57;;;11.07;;
69185;SDS011;56298;49.246;9.410;2022-11-20T07:14:11;20.23;;;11.10;;
69185;SDS011;56298;49.246;9.410;2022-11-20T07:16:36;20.10;;;11.03;;
69185;SDS011;56298;49.246;9.410;2022-11-20T07:19:01;24.33;;;12.83;;
69185;SDS011;56298;49.246;9.410;2022-11-20T07:21:26;39.60;;;18.20;;
69185;SDS011;56298;49.246;9.410;2022-11-20T07:23:52;37.93;;;16.57;;
69185;SDS011;56298;49.246;9.410;2022-11-20T07:26:17;57.67;;;25.60;;
69185;SDS011;56298;49.246;9.410;2022-11-20T07:28:45;44.87;;;23.17;;
69185;SDS011;56298;49.246;9.410;2022-11-20T07:31:11;36.38;;;19.80;;
69185;SDS011;56298;49.246;9.410;2022-11-20T07:33:37;30.73;;;18.02;;
69185;SDS011;56298;49.246;9.410;2022-11-20T07:36:03;26.00;;;16.23;;
69185;SDS011;56298;49.246;9.410;2022-11-20T07:38:29;22.73;;;13.37;;
69185;SDS011;56298;49.246;9.410;2022-11-20T07:40:54;26.07;;;14.93;;
69185;SDS011;56298;49.246;9.410;2022-11-20T07:43:23;53.20;;;31.75;;
69185;SDS011;56298;49.246;9.410;2022-11-20T07:45:49;62.58;;;36.17;;
69185;SDS011;56298;49.246;9.410;2022-11-20T07:48:14;36.22;;;21.90;;
69185;SDS011;56298;49.246;9.410;2022-11-20T07:50:39;24.45;;;14.30;;
69185;SDS011;56298;49.246;9.410;2022-11-20T07:53:05;25.53;;;15.43;;
69185;SDS011;56298;49.246;9.410;2022-11-20T07:55:30;36.30;;;21.70;;
69185;SDS011;56298;49.246;9.410;2022-11-20T07:57:56;35.70;;;22.05;;
69185;SDS011;56298;49.246;9.410;2022-11-20T08:00:22;32.20;;;18.20;;
69185;SDS011;56298;49.246;9.410;2022-11-20T08:02:48;28.38;;;17.08;;
69185;SDS011;56298;49.246;9.410;2022-11-20T08:05:13;22.70;;;14.13;;
69185;SDS011;56298;49.246;9.410;2022-11-20T08:07:39;19.00;;;11.32;;
69185;SDS011;56298;49.246;9.410;2022-11-20T08:10:06;19.77;;;10.63;;
69185;SDS011;56298;49.246;9.410;2022-11-20T08:12:32;16.60;;;9.87;;
69185;SDS011;56298;49.246;9.410;2022-11-20T08:15:16;17.20;;;10.15;;
69185;SDS011;56298;49.246;9.410;2022-11-20T08:17:42;15.02;;;9.10;;
69185;SDS011;56298;49.246;9.410;2022-11-20T08:20:07;15.77;;;9.27;;
69185;SDS011;56298;49.246;9.410;2022-11-20T08:22:33;15.88;;;9.20;;
69185;SDS011;56298;49.246;9.410;2022-11-20T08:24:58;17.83;;;10.50;;
69185;SDS011;56298;49.246;9.410;2022-11-20T08:27:23;17.15;;;9.75;;
69185;SDS011;56298;49.246;9.410;2022-11-20T08:29:49;26.55;;;13.70;;
69185;SDS011;56298;49.246;9.410;2022-11-20T08:32:14;33.57;;;20.43;;
69185;SDS011;56298;49.246;9.410;2022-11-20T08:34:39;27.57;;;16.57;;
69185;SDS011;56298;49.246;9.410;2022-11-20T08:37:05;26.83;;;16.23;;
69185;SDS011;56298;49.246;9.410;2022-11-20T08:39:30;30.40;;;16.77;;
69185;SDS011;56298;49.246;9.410;2022-11-20T08:41:55;29.57;;;16.57;;
69185;SDS011;56298;49.246;9.410;2022-11-20T08:44:21;25.33;;;14.80;;
69185;SDS011;56298;49.246;9.410;2022-11-20T08:46:47;25.93;;;15.50;;
69185;SDS011;56298;49.246;9.410;2022-11-20T08:49:12;22.23;;;12.97;;
69185;SDS011;56298;49.246;9.410;2022-11-20T08:51:38;10.75;;;5.93;;
69185;SDS011;56298;49.246;9.410;2022-11-20T08:54:04;9.60;;;5.87;;
69185;SDS011;56298;49.246;9.410;2022-11-20T08:56:30;9.57;;;5.18;;
69185;SDS011;56298;49.246;9.410;2022-11-20T08:58:55;9.07;;;5.07;;
69185;SDS011;56298;49.246;9.410;2022-11-20T09:01:22;8.27;;;4.90;;
69185;SDS011;56298;49.246;9.410;2022-11-20T09:03:48;9.23;;;5.07;;
69185;SDS011;56298;49.246;9.410;2022-11-20T09:06:13;8.63;;;4.88;;
69185;SDS011;56298;49.246;9.410;2022-11-20T09:08:39;8.75;;;4.43;;
69185;SDS011;56298;49.246;9.410;2022-11-20T09:11:05;8.77;;;4.60;;
69185;SDS011;56298;49.246;9.410;2022-11-20T09:13:31;8.95;;;4.60;;
69185;SDS011;56298;49.246;9.410;2022-11-20T09:16:07;7.37;;;3.90;;
69185;SDS011;56298;49.246;9.410;2022-11-20T09:18:33;8.70;;;4.10;;
69185;SDS011;56298;49.246;9.410;2022-11-20T09:21:04;9.10;;;4.30;;
69185;SDS011;56298;49.246;9.410;2022-11-20T09:23:32;7.63;;;3.88;;
69185;SDS011;56298;49.246;9.410;2022-11-20T09:26:01;8.80;;;4.10;;
69185;SDS011;56298;49.246;9.410;2022-11-20T09:28:27;7.57;;;4.20;;
69185;SDS011;56298;49.246;9.410;2022-11-20T09:30:53;7.93;;;3.93;;
69185;SDS011;56298;49.246;9.410;2022-11-20T09:33:18;7.60;;;3.87;;
69185;SDS011;56298;49.246;9.410;2022-11-20T09:35:43;7.67;;;4.40;;
69185;SDS011;56298;49.246;9.410;2022-11-20T09:38:09;8.10;;;4.50;;
69185;SDS011;56298;49.246;9.410;2022-11-20T09:40:40;7.93;;;4.40;;
69185;SDS011;56298;49.246;9.410;2022-11-20T09:43:18;7.25;;;4.28;;
69185;SDS011;56298;49.246;9.410;2022-11-20T09:46:11;8.13;;;4.30;;
69185;SDS011;56298;49.246;9.410;2022-11-20T09:51:21;8.73;;;4.47;;
69185;SDS011;56298;49.246;9.410;2022-11-20T09:54:13;9.20;;;5.35;;
69185;SDS011;56298;49.246;9.410;2022-11-20T09:56:40;8.77;;;4.53;;
69185;SDS011;56298;49.246;9.410;2022-11-20T09:59:13;8.48;;;4.30;;
69185;SDS011;56298;49.246;9.410;2022-11-20T10:01:59;8.02;;;4.82;;
69185;SDS011;56298;49.246;9.410;2022-11-20T10:04:26;8.47;;;4.80;;
69185;SDS011;56298;49.246;9.410;2022-11-20T10:07:06;10.13;;;5.30;;
69185;SDS011;56298;49.246;9.410;2022-11-20T10:09:53;14.37;;;8.30;;
69185;SDS011;56298;49.246;9.410;2022-11-20T10:18:09;14.10;;;8.20;;
69185;SDS011;56298;49.246;9.410;2022-11-20T10:23:40;13.80;;;8.40;;
69185;SDS011;56298;49.246;9.410;2022-11-20T10:26:16;13.82;;;7.13;;
69185;SDS011;56298;49.246;9.410;2022-11-20T10:28:56;12.50;;;7.10;;
69185;SDS011;56298;49.246;9.410;2022-11-20T10:31:49;13.05;;;7.63;;
69185;SDS011;56298;49.246;9.410;2022-11-20T10:36:52;9.37;;;5.40;;
69185;SDS011;56298;49.246;9.410;2022-11-20T10:39:42;10.17;;;5.60;;
69185;SDS011;56298;49.246;9.410;2022-11-20T10:42:16;8.05;;;4.88;;
69185;SDS011;56298;49.246;9.410;2022-11-20T10:44:47;8.32;;;4.97;;
69185;SDS011;56298;49.246;9.410;2022-11-20T10:47:27;8.32;;;4.50;;
69185;SDS011;56298;49.246;9.410;2022-11-20T10:49:55;8.02;;;5.00;;
69185;SDS011;56298;49.246;9.410;2022-11-20T10:52:34;9.10;;;4.57;;
69185;SDS011;56298;49.246;9.410;2022-11-20T10:55:39;8.23;;;4.07;;
69185;SDS011;56298;49.246;9.410;2022-11-20T10:58:10;7.10;;;4.20;;
69185;SDS011;56298;49.246;9.410;2022-11-20T11:00:44;9.43;;;5.47;;
69185;SDS011;56298;49.246;9.410;2022-11-20T11:03:24;19.08;;;10.60;;
69185;SDS011;56298;49.246;9.410;2022-11-20T11:06:08;11.27;;;7.22;;
69185;SDS011;56298;49.246;9.410;2022-11-20T11:08:44;12.48;;;7.80;;
69185;SDS011;56298;49.246;9.410;2022-11-20T11:11:18;10.15;;;6.22;;
69185;SDS011;56298;49.246;9.410;2022-11-20T11:13:50;12.97;;;7.73;;
69185;SDS011;56298;49.246;9.410;2022-11-20T11:16:20;11.80;;;7.03;;
69185;SDS011;56298;49.246;9.410;2022-11-20T11:18:46;16.33;;;7.70;;
69185;SDS011;56298;49.246;9.410;2022-11-20T11:21:11;15.23;;;6.83;;
69185;SDS011;56298;49.246;9.410;2022-11-20T11:23:41;20.20;;;7.63;;
69185;SDS011;56298;49.246;9.410;2022-11-20T11:26:21;41.13;;;13.45;;
69185;SDS011;56298;49.246;9.410;2022-11-20T11:28:57;22.17;;;7.70;;
69185;SDS011;56298;49.246;9.410;2022-11-20T11:31:28;11.75;;;5.28;;
69185;SDS011;56298;49.246;9.410;2022-11-20T11:34:10;44.88;;;15.05;;
69185;SDS011;56298;49.246;9.410;2022-11-20T11:36:37;27.15;;;9.23;;
69185;SDS011;56298;49.246;9.410;2022-11-20T11:39:03;31.57;;;10.73;;
69185;SDS011;56298;49.246;9.410;2022-11-20T11:41:32;33.60;;;10.18;;
69185;SDS011;56298;49.246;9.410;2022-11-20T11:44:24;21.42;;;8.27;;
69185;SDS011;56298;49.246;9.410;2022-11-20T11:49:49;12.85;;;5.47;;
69185;SDS011;56298;49.246;9.410;2022-11-20T11:52:18;24.77;;;7.47;;
69185;SDS011;56298;49.246;9.410;2022-11-20T11:54:51;24.53;;;8.47;;
69185;SDS011;56298;49.246;9.410;2022-11-20T11:57:22;10.15;;;4.82;;
69185;SDS011;56298;49.246;9.410;2022-11-20T12:02:41;113.68;;;23.77;;
69185;SDS011;56298;49.246;9.410;2022-11-20T12:05:24;33.70;;;9.90;;
69185;SDS011;56298;49.246;9.410;2022-11-20T12:07:55;34.88;;;10.45;;
69185;SDS011;56298;49.246;9.410;2022-11-20T12:16:02;24.85;;;7.85;;
69185;SDS011;56298;49.246;9.410;2022-11-20T12:18:28;30.33;;;9.23;;
69185;SDS011;56298;49.246;9.410;2022-11-20T12:25:57;13.77;;;6.00;;
69185;SDS011;56298;49.246;9.410;2022-11-20T12:28:36;45.77;;;10.77;;
69185;SDS011;56298;49.246;9.410;2022-11-20T12:39:54;25.33;;;8.27;;
69185;SDS011;56298;49.246;9.410;2022-11-20T12:42:47;44.95;;;11.40;;
69185;SDS011;56298;49.246;9.410;2022-11-20T12:57:14;43.33;;;12.02;;
69185;SDS011;56298;49.246;9.410;2022-11-20T13:05:46;18.55;;;5.35;;
69185;SDS011;56298;49.246;9.410;2022-11-20T13:08:25;29.13;;;9.00;;
69185;SDS011;56298;49.246;9.410;2022-11-20T13:11:06;14.60;;;4.80;;
69185;SDS011;56298;49.246;9.410;2022-11-20T13:14:07;39.75;;;11.85;;
69185;SDS011;56298;49.246;9.410;2022-11-20T13:16:41;76.80;;;22.73;;
69185;SDS011;56298;49.246;9.410;2022-11-20T13:19:13;56.13;;;16.38;;
69185;SDS011;56298;49.246;9.410;2022-11-20T13:21:41;65.65;;;25.83;;
69185;SDS011;56298;49.246;9.410;2022-11-20T13:24:30;41.80;;;14.57;;
69185;SDS011;56298;49.246;9.410;2022-11-20T13:27:01;36.07;;;9.87;;
69185;SDS011;56298;49.246;9.410;2022-11-20T13:29:27;53.50;;;14.63;;
69185;SDS011;56298;49.246;9.410;2022-11-20T13:32:00;17.30;;;5.32;;
69185;SDS011;56298;49.246;9.410;2022-11-20T13:34:28;30.05;;;11.25;;
69185;SDS011;56298;49.246;9.410;2022-11-20T13:36:57;21.48;;;7.57;;
69185;SDS011;56298;49.246;9.410;2022-11-20T13:39:26;16.27;;;6.20;;
69185;SDS011;56298;49.246;9.410;2022-11-20T13:41:54;29.23;;;8.82;;
69185;SDS011;56298;49.246;9.410;2022-11-20T13:44:38;29.35;;;10.32;;
69185;SDS011;56298;49.246;9.410;2022-11-20T13:47:23;41.42;;;12.90;;
69185;SDS011;56298;49.246;9.410;2022-11-20T13:49:50;28.90;;;10.05;;
69185;SDS011;56298;49.246;9.410;2022-11-20T13:55:20;33.40;;;11.95;;
69185;SDS011;56298;49.246;9.410;2022-11-20T14:00:21;13.65;;;5.35;;
69185;SDS011;56298;49.246;9.410;2022-11-20T14:02:59;17.13;;;7.38;;
69185;SDS011;56298;49.246;9.410;2022-11-20T14:05:36;14.63;;;6.40;;
69185;SDS011;56298;49.246;9.410;2022-11-20T14:08:04;18.73;;;7.93;;
69185;SDS011;56298;49.246;9.410;2022-11-20T14:10:32;15.05;;;6.38;;
69185;SDS011;56298;49.246;9.410;2022-11-20T14:12:57;15.15;;;8.20;;
69185;SDS011;56298;49.246;9.410;2022-11-20T14:15:28;10.13;;;4.30;;
69185;SDS011;56298;49.246;9.410;2022-11-20T14:17:55;10.37;;;4.07;;
69185;SDS011;56298;49.246;9.410;2022-11-20T14:20:20;10.63;;;4.20;;
69185;SDS011;56298;49.246;9.410;2022-11-20T14:22:50;13.23;;;5.53;;
69185;SDS011;56298;49.246;9.410;2022-11-20T14:27:42;7.68;;;3.10;;
69185;SDS011;56298;49.246;9.410;2022-11-20T14:30:21;9.90;;;4.22;;
69185;SDS011;56298;49.246;9.410;2022-11-20T14:32:48;9.40;;;3.87;;
69185;SDS011;56298;49.246;9.410;2022-11-20T14:38:00;5.25;;;1.65;;
69185;SDS011;56298;49.246;9.410;2022-11-20T14:40:30;6.18;;;2.50;;
69185;SDS011;56298;49.246;9.410;2022-11-20T14:42:58;10.63;;;2.65;;
69185;SDS011;56298;49.246;9.410;2022-11-20T14:45:24;7.20;;;2.83;;
69185;SDS011;56298;49.246;9.410;2022-11-20T14:47:51;10.52;;;4.68;;
69185;SDS011;56298;49.246;9.410;2022-11-20T14:50:25;8.90;;;2.67;;
69185;SDS011;56298;49.246;9.410;2022-11-20T14:55:33;7.15;;;3.17;;
69185;SDS011;56298;49.246;9.410;2022-11-20T14:58:01;7.78;;;3.40;;
69185;SDS011;56298;49.246;9.410;2022-11-20T15:00:29;6.45;;;2.33;;
69185;SDS011;56298;49.246;9.410;2022-11-20T15:02:55;8.93;;;3.92;;
69185;SDS011;56298;49.246;9.410;2022-11-20T15:05:22;8.38;;;3.50;;
69185;SDS011;56298;49.246;9.410;2022-11-20T15:07:52;10.57;;;4.00;;
69185;SDS011;56298;49.246;9.410;2022-11-20T15:10:30;6.72;;;2.70;;
69185;SDS011;56298;49.246;9.410;2022-11-20T15:12:57;7.03;;;2.80;;
69185;SDS011;56298;49.246;9.410;2022-11-20T15:17:53;10.03;;;3.70;;
69185;SDS011;56298;49.246;9.410;2022-11-20T15:20:19;11.68;;;5.15;;
69185;SDS011;56298;49.246;9.410;2022-11-20T15:22:47;8.75;;;3.25;;
69185;SDS011;56298;49.246;9.410;2022-11-20T15:25:17;9.87;;;3.93;;
69185;SDS011;56298;49.246;9.410;2022-11-20T15:27:43;11.83;;;3.70;;
69185;SDS011;56298;49.246;9.410;2022-11-20T15:30:13;14.35;;;6.00;;
69185;SDS011;56298;49.246;9.410;2022-11-20T15:32:41;21.30;;;8.90;;
69185;SDS011;56298;49.246;9.410;2022-11-20T15:35:07;19.83;;;8.63;;
69185;SDS011;56298;49.246;9.410;2022-11-20T15:37:32;19.33;;;8.07;;
69185;SDS011;56298;49.246;9.410;2022-11-20T15:39:58;19.83;;;7.40;;
69185;SDS011;56298;49.246;9.410;2022-11-20T15:42:23;11.10;;;4.10;;
69185;SDS011;56298;49.246;9.410;2022-11-20T15:44:48;8.97;;;3.07;;
69185;SDS011;56298;49.246;9.410;2022-11-20T15:47:13;8.37;;;3.50;;
69185;SDS011;56298;49.246;9.410;2022-11-20T15:49:39;7.53;;;3.60;;
69185;SDS011;56298;49.246;9.410;2022-11-20T15:52:04;8.53;;;2.90;;
69185;SDS011;56298;49.246;9.410;2022-11-20T15:54:29;8.93;;;3.23;;
69185;SDS011;56298;49.246;9.410;2022-11-20T15:56:55;9.67;;;4.00;;
69185;SDS011;56298;49.246;9.410;2022-11-20T15:59:20;8.97;;;3.40;;
69185;SDS011;56298;49.246;9.410;2022-11-20T16:01:45;9.13;;;3.30;;